createdAt,value
2018-02-21T00:01:37.196Z,28.92
2018-02-21T00:04:04.751Z,27.37
2018-02-21T00:06:32.301Z,28.92
2018-02-21T00:08:59.840Z,27.17
2018-02-21T00:11:28.110Z,27.95
2018-02-21T00:13:56.403Z,28.17
2018-02-21T00:16:23.895Z,27.73
2018-02-21T00:18:51.383Z,27.13
2018-02-21T00:21:18.980Z,27.65
2018-02-21T00:23:46.536Z,28.45
2018-02-21T00:26:14.219Z,27.73
2018-02-21T00:28:41.715Z,27.67
2018-02-21T00:31:09.380Z,27.52
2018-02-21T00:33:36.961Z,27.55
2018-02-21T00:36:05.329Z,28.05
2018-02-21T00:38:33.707Z,26.98
2018-02-21T00:41:01.316Z,27.08
2018-02-21T00:43:28.904Z,27.42
2018-02-21T00:45:56.507Z,27.83
2018-02-21T00:48:24.875Z,27.30
2018-02-21T00:50:53.254Z,27.35
2018-02-21T00:53:20.872Z,27.92
2018-02-21T00:55:48.473Z,26.70
2018-02-21T00:58:16.852Z,27.00
2018-02-21T01:00:45.202Z,28.10
2018-02-21T01:03:12.820Z,28.58
2018-02-21T01:05:40.397Z,27.35
2018-02-21T01:08:07.993Z,27.60
2018-02-21T01:10:35.582Z,27.17
2018-02-21T01:13:03.166Z,28.92
2018-02-21T01:15:30.786Z,28.45
2018-02-21T01:17:58.458Z,27.33
2018-02-21T01:20:26.830Z,28.12
2018-02-21T01:22:54.413Z,28.27
2018-02-21T01:25:22.047Z,28.52
2018-02-21T01:27:50.408Z,28.48
2018-02-21T01:30:17.984Z,28.12
2018-02-21T01:32:45.756Z,28.77
2018-02-21T01:35:14.110Z,27.23
2018-02-21T01:37:41.708Z,28.75
2018-02-21T01:40:10.095Z,29.42
2018-02-21T01:42:38.048Z,28.95
2018-02-21T01:45:06.406Z,29.15
2018-02-21T01:47:34.017Z,30.48
2018-02-21T01:50:01.613Z,28.40
2018-02-21T01:52:29.193Z,29.10
2018-02-21T01:54:56.794Z,29.10
2018-02-21T01:57:24.375Z,28.85
2018-02-21T01:59:51.961Z,29.73
2018-02-21T02:02:19.557Z,28.52
2018-02-21T02:04:47.926Z,28.27
2018-02-21T02:07:15.504Z,29.58
2018-02-21T02:09:43.857Z,28.80
2018-02-21T02:12:11.440Z,29.85
2018-02-21T02:14:39.799Z,29.20
2018-02-21T02:17:08.153Z,27.80
2018-02-21T02:19:35.754Z,29.20
2018-02-21T02:22:04.132Z,28.60
2018-02-21T02:24:32.509Z,29.48
2018-02-21T02:27:00.887Z,29.30
2018-02-21T02:29:29.269Z,28.75
2018-02-21T02:31:57.641Z,28.92
2018-02-21T02:34:26.005Z,29.27
2018-02-21T02:36:53.584Z,28.35
2018-02-21T02:39:33.768Z,29.63
2018-02-21T02:42:01.397Z,29.20
2018-02-21T02:44:29.762Z,29.92
2018-02-21T02:46:57.349Z,29.98
2018-02-21T02:49:25.711Z,29.70
2018-02-21T02:51:54.072Z,30.83
2018-02-21T02:54:21.673Z,29.20
2018-02-21T02:56:49.321Z,30.48
2018-02-21T02:59:17.697Z,31.15
2018-02-21T03:01:46.186Z,29.27
2018-02-21T03:04:13.844Z,29.33
2018-02-21T03:06:42.192Z,29.05
2018-02-21T03:09:09.878Z,29.35
2018-02-21T03:11:37.533Z,29.75
2018-02-21T03:14:05.126Z,29.77
2018-02-21T03:16:32.712Z,29.37
2018-02-21T03:19:00.321Z,29.45
2018-02-21T03:21:28.668Z,30.35
2018-02-21T03:23:56.270Z,31.00
2018-02-21T03:26:24.751Z,29.17
2018-02-21T03:28:53.229Z,29.77
2018-02-21T03:31:21.700Z,28.92
2018-02-21T03:33:50.084Z,30.98
2018-02-21T03:36:18.443Z,28.83
2018-02-21T03:38:46.020Z,29.60
2018-02-21T03:41:14.395Z,29.50
2018-02-21T03:43:42.758Z,31.00
2018-02-21T03:46:10.442Z,28.65
2018-02-21T03:48:38.823Z,28.87
2018-02-21T03:51:07.171Z,29.73
2018-02-21T03:53:34.764Z,29.92
2018-02-21T03:56:03.101Z,30.35
2018-02-21T03:58:30.681Z,30.12
2018-02-21T04:00:58.260Z,28.60
2018-02-21T04:03:26.621Z,29.08
2018-02-21T04:05:54.208Z,30.05
2018-02-21T04:08:22.577Z,29.05
2018-02-21T04:10:50.925Z,29.17
2018-02-21T04:13:18.529Z,30.12
2018-02-21T04:15:46.736Z,30.23
2018-02-21T04:18:14.321Z,29.50
2018-02-21T04:20:43.718Z,29.40
2018-02-21T04:23:11.307Z,28.85
2018-02-21T04:25:38.982Z,29.67
2018-02-21T04:28:07.335Z,31.85
2018-02-21T04:30:34.921Z,29.63
2018-02-21T04:33:03.410Z,29.70
2018-02-21T04:35:31.756Z,30.85
2018-02-21T04:37:59.441Z,29.50
2018-02-21T04:40:27.777Z,29.90
2018-02-21T04:42:56.030Z,29.90
2018-02-21T04:45:23.613Z,30.48
2018-02-21T04:47:51.219Z,29.23
2018-02-21T04:50:19.585Z,30.15
2018-02-21T04:52:47.189Z,29.58
2018-02-21T04:55:25.604Z,29.92
2018-02-21T04:57:58.881Z,29.92
2018-02-21T05:00:26.496Z,29.15
2018-02-21T05:02:54.101Z,29.73
2018-02-21T05:05:21.742Z,29.75
2018-02-21T05:07:50.243Z,34.75
2018-02-21T05:10:17.901Z,32.08
2018-02-21T05:12:46.263Z,31.10
2018-02-21T05:15:14.614Z,28.95
2018-02-21T05:17:42.203Z,30.27
2018-02-21T05:20:10.585Z,29.98
2018-02-21T05:22:38.949Z,29.50
2018-02-21T05:25:06.547Z,30.58
2018-02-21T05:27:34.141Z,31.60
2018-02-21T05:30:01.723Z,30.52
2018-02-21T05:32:29.915Z,29.05
2018-02-21T05:34:57.502Z,29.65
2018-02-21T05:37:25.148Z,30.90
2018-02-21T05:39:53.500Z,34.70
2018-02-21T05:42:21.096Z,33.15
2018-02-21T05:44:49.441Z,32.40
2018-02-21T05:47:17.040Z,31.45
2018-02-21T05:49:44.685Z,30.65
2018-02-21T05:52:13.049Z,43.10
2018-02-21T05:54:40.843Z,35.47
2018-02-21T05:57:08.686Z,34.05
2018-02-21T05:59:36.266Z,31.17
2018-02-21T06:02:04.644Z,31.23
2018-02-21T06:04:32.993Z,30.55
2018-02-21T06:07:00.616Z,30.27
2018-02-21T06:09:28.237Z,29.58
2018-02-21T06:11:56.630Z,30.20
2018-02-21T06:14:24.273Z,30.12
2018-02-21T06:16:52.644Z,29.83
2018-02-21T06:19:20.234Z,32.15
2018-02-21T06:21:47.833Z,30.02
2018-02-21T06:24:15.445Z,32.33
2018-02-21T06:26:44.337Z,33.72
2018-02-21T06:29:12.714Z,34.28
2018-02-21T06:31:41.152Z,33.28
2018-02-21T06:34:08.870Z,34.35
2018-02-21T06:36:36.518Z,34.00
2018-02-21T06:39:04.900Z,33.00
2018-02-21T06:41:32.632Z,34.67
2018-02-21T06:44:00.228Z,34.08
2018-02-21T06:46:27.814Z,33.63
2018-02-21T06:48:55.439Z,34.40
2018-02-21T06:51:23.819Z,34.80
2018-02-21T06:53:52.362Z,35.50
2018-02-21T06:56:20.208Z,35.03
2018-02-21T06:58:47.800Z,35.80
2018-02-21T07:01:15.378Z,36.90
2018-02-21T07:03:43.059Z,36.50
2018-02-21T07:06:10.720Z,35.53
2018-02-21T07:08:39.092Z,35.38
2018-02-21T07:11:07.444Z,35.65
2018-02-21T07:13:35.130Z,35.33
2018-02-21T07:16:03.477Z,34.33
2018-02-21T07:18:31.096Z,33.08
2018-02-21T07:20:59.794Z,32.03
2018-02-21T07:23:27.404Z,32.20
2018-02-21T07:25:55.047Z,32.40
2018-02-21T07:28:22.654Z,31.77
2018-02-21T07:30:50.237Z,31.42
2018-02-21T07:33:17.867Z,34.42
2018-02-21T07:35:46.225Z,31.85
2018-02-21T07:38:13.814Z,30.65
2018-02-21T07:40:41.398Z,33.28
2018-02-21T07:43:09.022Z,32.38
2018-02-21T07:45:37.385Z,33.40
2018-02-21T07:48:04.981Z,32.25
2018-02-21T07:50:32.570Z,34.72
2018-02-21T07:53:00.238Z,34.95
2018-02-21T07:55:27.878Z,33.50
2018-02-21T07:57:55.475Z,33.30
2018-02-21T08:00:23.112Z,34.10
2018-02-21T08:02:50.781Z,35.35
2018-02-21T08:05:18.425Z,35.95
2018-02-21T08:07:46.073Z,33.83
2018-02-21T08:10:14.407Z,32.95
2018-02-21T08:12:42.067Z,33.72
2018-02-21T08:15:09.767Z,32.95
2018-02-21T08:17:37.446Z,33.65
2018-02-21T08:20:05.052Z,32.13
2018-02-21T08:22:32.653Z,32.97
2018-02-21T08:25:01.070Z,31.52
2018-02-21T08:27:28.740Z,31.17
2018-02-21T08:29:56.365Z,32.53
2018-02-21T08:32:24.052Z,30.80
2018-02-21T08:34:51.660Z,31.55
2018-02-21T08:37:20.276Z,31.55
2018-02-21T08:39:52.642Z,31.48
2018-02-21T08:42:20.298Z,30.98
2018-02-21T08:44:48.703Z,30.90
2018-02-21T08:47:16.347Z,30.33
2018-02-21T08:49:44.011Z,31.70
2018-02-21T08:52:11.661Z,31.42
2018-02-21T08:54:39.268Z,29.17
2018-02-21T08:57:06.977Z,30.00
2018-02-21T08:59:35.364Z,30.10
2018-02-21T09:02:02.946Z,30.20
2018-02-21T09:04:30.625Z,30.00
2018-02-21T09:06:58.266Z,30.25
2018-02-21T09:09:25.908Z,29.15
2018-02-21T09:11:53.594Z,29.75
2018-02-21T09:14:21.244Z,27.93
2018-02-21T09:16:48.890Z,28.33
2018-02-21T09:19:16.493Z,27.53
2018-02-21T09:21:44.077Z,28.43
2018-02-21T09:24:11.676Z,27.97
2018-02-21T09:26:40.024Z,28.37
2018-02-21T09:29:07.632Z,27.37
2018-02-21T09:31:39.245Z,28.33
2018-02-21T09:34:07.625Z,27.87
2018-02-21T09:36:35.226Z,28.57
2018-02-21T09:39:02.826Z,27.87
2018-02-21T09:41:30.413Z,27.87
2018-02-21T09:43:58.018Z,27.70
2018-02-21T09:46:25.597Z,28.43
2018-02-21T09:48:53.188Z,28.93
2018-02-21T09:51:20.765Z,28.13
2018-02-21T09:53:49.120Z,27.60
2018-02-21T09:56:17.513Z,26.97
2018-02-21T09:58:45.108Z,28.87
2018-02-21T10:01:12.702Z,28.73
2018-02-21T10:03:40.320Z,28.53
2018-02-21T10:06:07.912Z,28.43
2018-02-21T10:08:35.524Z,26.57
2018-02-21T10:11:03.879Z,27.23
2018-02-21T10:13:31.498Z,25.43
2018-02-21T10:15:59.077Z,26.50
2018-02-21T10:18:26.680Z,26.73
2018-02-21T10:20:54.267Z,25.10
2018-02-21T10:23:21.906Z,23.20
2018-02-21T10:25:50.267Z,23.77
2018-02-21T10:28:17.871Z,23.37
2018-02-21T10:30:45.468Z,22.13
2018-02-21T10:33:13.069Z,24.00
2018-02-21T10:35:41.418Z,23.03
2018-02-21T10:38:09.008Z,22.57
2018-02-21T10:40:37.436Z,20.80
2018-02-21T10:43:05.032Z,22.17
2018-02-21T10:45:32.613Z,20.77
2018-02-21T10:48:01.039Z,20.90
2018-02-21T10:50:28.618Z,21.20
2018-02-21T10:52:56.285Z,21.40
2018-02-21T10:55:23.873Z,21.40
2018-02-21T10:57:52.247Z,21.00
2018-02-21T11:00:25.394Z,20.47
2018-02-21T11:02:52.981Z,20.27
2018-02-21T11:05:21.352Z,20.13
2018-02-21T11:07:48.932Z,20.10
2018-02-21T11:10:16.509Z,21.10
2018-02-21T11:12:44.878Z,18.67
2018-02-21T11:15:13.229Z,18.43
2018-02-21T11:17:40.841Z,18.87
2018-02-21T11:20:08.416Z,18.83
2018-02-21T11:22:36.013Z,18.53
2018-02-21T11:25:03.595Z,19.90
2018-02-21T11:27:32.709Z,19.03
2018-02-21T11:30:01.068Z,19.63
2018-02-21T11:32:29.574Z,20.33
2018-02-21T11:34:57.153Z,18.77
2018-02-21T11:37:25.487Z,17.93
2018-02-21T11:39:53.064Z,18.00
2018-02-21T11:42:20.665Z,18.00
2018-02-21T11:44:48.246Z,17.97
2018-02-21T11:47:15.937Z,17.10
2018-02-21T11:49:44.298Z,17.47
2018-02-21T11:52:12.001Z,17.33
2018-02-21T11:54:39.595Z,17.70
2018-02-21T11:57:07.185Z,17.23
2018-02-21T11:59:34.781Z,18.40
2018-02-21T12:02:02.420Z,18.73
2018-02-21T12:04:30.087Z,17.30
2018-02-21T12:07:02.322Z,18.20
2018-02-21T12:09:30.021Z,17.23
2018-02-21T12:11:58.392Z,16.23
2018-02-21T12:14:25.980Z,13.30
2018-02-21T12:16:53.620Z,12.60
2018-02-21T12:19:21.246Z,12.83
2018-02-21T12:21:48.949Z,13.10
2018-02-21T12:24:17.337Z,12.50
2018-02-21T12:26:45.015Z,12.30
2018-02-21T12:29:12.600Z,11.53
2018-02-21T12:31:40.198Z,11.10
2018-02-21T12:34:07.796Z,11.70
2018-02-21T12:36:35.543Z,11.00
2018-02-21T12:39:11.205Z,10.93
2018-02-21T12:41:43.741Z,10.70
2018-02-21T12:44:11.319Z,11.07
2018-02-21T12:46:39.675Z,10.47
2018-02-21T12:49:07.272Z,10.60
2018-02-21T12:51:34.848Z,11.20
2018-02-21T12:54:02.451Z,11.13
2018-02-21T12:56:30.032Z,11.70
2018-02-21T12:58:58.385Z,10.27
2018-02-21T13:01:25.994Z,10.00
2018-02-21T13:03:53.588Z,9.03
2018-02-21T13:06:21.174Z,9.77
2018-02-21T13:08:48.795Z,10.63
2018-02-21T13:11:16.420Z,10.80
2018-02-21T13:13:44.773Z,10.53
2018-02-21T13:16:12.345Z,10.13
2018-02-21T13:18:40.020Z,9.40
2018-02-21T13:21:08.403Z,10.90
2018-02-21T13:23:36.768Z,10.53
2018-02-21T13:26:04.352Z,10.57
2018-02-21T13:28:32.722Z,9.27
2018-02-21T13:31:01.066Z,9.83
2018-02-21T13:33:28.757Z,9.00
2018-02-21T13:35:57.106Z,9.07
2018-02-21T13:38:24.686Z,8.23
2018-02-21T13:40:53.361Z,9.33
2018-02-21T13:43:20.941Z,8.33
2018-02-21T13:45:49.400Z,8.93
2018-02-21T13:48:16.990Z,8.83
2018-02-21T13:50:45.378Z,8.77
2018-02-21T13:53:13.136Z,8.60
2018-02-21T13:55:40.771Z,9.60
2018-02-21T13:58:08.460Z,10.00
2018-02-21T14:00:36.805Z,9.17
2018-02-21T14:03:04.404Z,10.03
2018-02-21T14:05:32.032Z,9.90
2018-02-21T14:07:59.624Z,9.13
2018-02-21T14:10:27.970Z,9.00
2018-02-21T14:12:55.569Z,9.37
2018-02-21T14:15:23.186Z,8.63
2018-02-21T14:17:50.937Z,8.60
2018-02-21T14:20:18.518Z,8.20
2018-02-21T14:22:46.172Z,8.13
2018-02-21T14:25:13.737Z,8.40
2018-02-21T14:27:41.417Z,8.10
2018-02-21T14:30:09.852Z,8.67
2018-02-21T14:32:37.437Z,7.97
2018-02-21T14:35:05.016Z,7.83
2018-02-21T14:37:33.380Z,8.77
2018-02-21T14:40:00.959Z,8.17
2018-02-21T14:42:29.606Z,8.30
2018-02-21T14:44:57.218Z,7.90
2018-02-21T14:47:25.618Z,7.70
2018-02-21T14:49:53.202Z,8.83
2018-02-21T14:52:20.816Z,9.43
2018-02-21T14:54:49.159Z,8.50
2018-02-21T14:57:17.533Z,8.13
2018-02-21T14:59:45.164Z,9.30
2018-02-21T15:02:12.774Z,8.60
2018-02-21T15:04:40.353Z,8.10
2018-02-21T15:07:08.740Z,7.50
2018-02-21T15:09:36.385Z,7.43
2018-02-21T15:12:04.765Z,7.53
2018-02-21T15:14:33.149Z,7.20
2018-02-21T15:17:01.818Z,7.57
2018-02-21T15:19:29.438Z,7.53
2018-02-21T15:21:57.091Z,6.80
2018-02-21T15:24:24.663Z,7.13
2018-02-21T15:26:52.310Z,7.53
2018-02-21T15:29:19.987Z,8.40
2018-02-21T15:31:47.577Z,7.70
2018-02-21T15:34:15.166Z,7.97
2018-02-21T15:36:43.549Z,7.77
2018-02-21T15:39:11.929Z,6.70
2018-02-21T15:41:40.329Z,7.57
2018-02-21T15:44:07.985Z,7.53
2018-02-21T15:46:35.567Z,7.37
2018-02-21T15:49:03.141Z,7.60
2018-02-21T15:51:30.766Z,7.50
2018-02-21T15:53:58.350Z,6.90
2018-02-21T15:56:25.935Z,7.80
2018-02-21T15:58:53.564Z,7.27
2018-02-21T16:01:21.199Z,7.83
2018-02-21T16:03:48.849Z,7.63
2018-02-21T16:06:17.275Z,8.10
2018-02-21T16:08:44.857Z,8.40
2018-02-21T16:11:15.484Z,8.00
2018-02-21T16:13:43.131Z,8.97
2018-02-21T16:16:12.480Z,10.83
2018-02-21T16:18:40.909Z,9.67
2018-02-21T16:21:08.506Z,9.17
2018-02-21T16:23:36.100Z,8.70
2018-02-21T16:26:04.429Z,8.63
2018-02-21T16:28:32.221Z,9.07
2018-02-21T16:30:59.811Z,10.03
2018-02-21T16:33:27.408Z,10.57
2018-02-21T16:35:54.993Z,10.73
2018-02-21T16:38:22.609Z,10.30
2018-02-21T16:40:50.320Z,10.27
2018-02-21T16:43:18.117Z,11.30
2018-02-21T16:45:45.711Z,10.80
2018-02-21T16:48:13.296Z,9.63
2018-02-21T16:50:40.888Z,11.17
2018-02-21T16:53:09.304Z,11.43
2018-02-21T16:55:36.893Z,10.20
2018-02-21T16:58:04.469Z,10.17
2018-02-21T17:00:32.073Z,10.20
2018-02-21T17:02:59.674Z,9.97
2018-02-21T17:05:27.271Z,10.63
2018-02-21T17:07:55.649Z,10.97
2018-02-21T17:10:24.040Z,9.80
2018-02-21T17:12:52.438Z,10.80
2018-02-21T17:15:20.037Z,10.50
2018-02-21T17:17:48.443Z,10.53
2018-02-21T17:20:16.309Z,10.00
2018-02-21T17:22:44.659Z,20.00
2018-02-21T17:25:12.252Z,12.17
2018-02-21T17:27:40.643Z,11.90
2018-02-21T17:30:08.240Z,12.50
2018-02-21T17:32:35.895Z,11.12
2018-02-21T17:35:03.476Z,11.57
2018-02-21T17:37:31.074Z,11.60
2018-02-21T17:39:59.471Z,11.50
2018-02-21T17:42:27.122Z,11.48
2018-02-21T17:44:54.722Z,11.20
2018-02-21T17:47:22.345Z,11.60
2018-02-21T17:49:49.938Z,11.17
2018-02-21T17:52:17.556Z,10.98
2018-02-21T17:54:45.931Z,10.20
2018-02-21T17:57:14.320Z,11.23
2018-02-21T17:59:42.003Z,12.73
2018-02-21T18:02:09.616Z,14.48
2018-02-21T18:04:37.296Z,13.73
2018-02-21T18:07:05.680Z,14.02
2018-02-21T18:09:34.058Z,13.30
2018-02-21T18:12:02.412Z,13.88
2018-02-21T18:14:30.018Z,11.32
2018-02-21T18:16:57.629Z,11.30
2018-02-21T18:19:25.270Z,10.73
2018-02-21T18:21:52.856Z,11.23
2018-02-21T18:24:22.038Z,11.13
2018-02-21T18:26:49.656Z,12.55
2018-02-21T18:29:17.306Z,12.23
2018-02-21T18:31:44.978Z,13.32
2018-02-21T18:34:12.580Z,14.18
2018-02-21T18:36:40.171Z,13.75
2018-02-21T18:39:07.764Z,13.67
2018-02-21T18:41:35.831Z,12.75
2018-02-21T18:44:03.424Z,12.50
2018-02-21T18:46:31.041Z,12.95
2018-02-21T18:48:59.464Z,12.85
2018-02-21T18:51:27.076Z,12.40
2018-02-21T18:53:55.456Z,12.73
2018-02-21T18:56:23.848Z,12.23
2018-02-21T18:58:51.496Z,11.68
2018-02-21T19:01:19.106Z,11.85
2018-02-21T19:03:46.743Z,12.32
2018-02-21T19:06:14.376Z,12.18
2018-02-21T19:08:42.123Z,12.10
2018-02-21T19:11:09.920Z,12.80
2018-02-21T19:13:38.408Z,12.73
2018-02-21T19:16:06.017Z,12.45
2018-02-21T19:18:33.605Z,38.03
2018-02-21T19:21:01.246Z,18.12
2018-02-21T19:23:28.844Z,12.90
2018-02-21T19:25:57.238Z,11.90
2018-02-21T19:28:24.840Z,12.32
2018-02-21T19:30:52.541Z,12.02
2018-02-21T19:33:20.901Z,11.73
2018-02-21T19:35:49.389Z,12.48
2018-02-21T19:38:17.056Z,12.00
2018-02-21T19:40:45.439Z,12.27
2018-02-21T19:43:13.888Z,12.10
2018-02-21T19:45:41.585Z,12.35
2018-02-21T19:48:09.941Z,12.48
2018-02-21T19:50:37.642Z,13.52
2018-02-21T19:53:05.527Z,13.15
2018-02-21T19:55:33.157Z,13.62
2018-02-21T19:58:01.511Z,12.50
2018-02-21T20:00:29.193Z,14.10
2018-02-21T20:02:56.778Z,13.62
2018-02-21T20:05:24.420Z,13.30
2018-02-21T20:07:52.803Z,13.35
2018-02-21T20:10:20.458Z,13.27
2018-02-21T20:12:48.263Z,14.50
2018-02-21T20:15:15.880Z,17.33
2018-02-21T20:17:44.240Z,16.65
2018-02-21T20:20:11.857Z,15.60
2018-02-21T20:22:39.572Z,14.90
2018-02-21T20:25:07.968Z,13.85
2018-02-21T20:27:36.325Z,14.93
2018-02-21T20:30:04.005Z,14.52
2018-02-21T20:32:32.348Z,15.50
2018-02-21T20:34:59.953Z,14.57
2018-02-21T20:37:28.340Z,14.63
2018-02-21T20:39:55.986Z,14.70
2018-02-21T20:42:24.339Z,15.63
2018-02-21T20:44:52.045Z,19.67
2018-02-21T20:47:19.666Z,15.77
2018-02-21T20:49:47.409Z,15.20
2018-02-21T20:52:15.035Z,15.80
2018-02-21T20:54:42.669Z,16.33
2018-02-21T20:57:11.037Z,16.23
2018-02-21T20:59:40.154Z,16.65
2018-02-21T21:02:08.580Z,15.65
2018-02-21T21:04:36.180Z,17.08
2018-02-21T21:07:03.803Z,16.92
2018-02-21T21:09:31.393Z,18.20
2018-02-21T21:11:59.750Z,20.05
2018-02-21T21:14:27.341Z,21.98
2018-02-21T21:16:55.056Z,22.20
2018-02-21T21:19:22.681Z,22.00
2018-02-21T21:21:51.045Z,21.27
2018-02-21T21:24:18.632Z,20.08
2018-02-21T21:26:46.228Z,18.90
2018-02-21T21:29:13.836Z,18.60
2018-02-21T21:31:42.238Z,17.65
2018-02-21T21:34:09.866Z,17.17
2018-02-21T21:36:37.509Z,17.95
2018-02-21T21:39:05.168Z,17.60
2018-02-21T21:41:32.769Z,17.65
2018-02-21T21:44:01.129Z,17.73
2018-02-21T21:46:28.728Z,20.15
2018-02-21T21:48:56.339Z,20.65
2018-02-21T21:51:23.921Z,22.33
2018-02-21T21:53:52.316Z,21.23
2018-02-21T21:56:20.670Z,24.37
2018-02-21T21:58:48.349Z,23.52
2018-02-21T22:01:16.712Z,23.73
2018-02-21T22:03:45.145Z,21.98
2018-02-21T22:06:12.733Z,21.75
2018-02-21T22:08:40.340Z,20.85
2018-02-21T22:11:08.724Z,20.50
2018-02-21T22:13:36.370Z,19.85
2018-02-21T22:16:04.714Z,19.87
2018-02-21T22:18:32.416Z,18.70
2018-02-21T22:21:00.785Z,19.05
2018-02-21T22:23:29.157Z,18.90
2018-02-21T22:25:56.738Z,18.42
2018-02-21T22:28:25.107Z,18.95
2018-02-21T22:30:53.469Z,18.40
2018-02-21T22:33:22.565Z,20.30
2018-02-21T22:35:50.245Z,18.35
2018-02-21T22:38:18.618Z,20.12
2018-02-21T22:40:46.972Z,20.42
2018-02-21T22:43:14.569Z,20.20
2018-02-21T22:45:42.921Z,20.02
2018-02-21T22:48:10.509Z,20.30
2018-02-21T22:50:38.847Z,20.25
2018-02-21T22:53:06.536Z,19.98
2018-02-21T22:55:34.985Z,19.73
2018-02-21T22:58:02.688Z,19.90
2018-02-21T23:00:33.569Z,20.02
2018-02-21T23:03:01.156Z,19.52
2018-02-21T23:05:28.746Z,20.10
2018-02-21T23:07:56.333Z,20.27
2018-02-21T23:10:23.929Z,21.85
2018-02-21T23:12:51.525Z,21.67
2018-02-21T23:15:20.013Z,22.17
2018-02-21T23:17:47.628Z,22.17
2018-02-21T23:20:15.211Z,19.98
2018-02-21T23:22:42.880Z,20.42
2018-02-21T23:25:11.233Z,21.98
2018-02-21T23:27:38.825Z,20.50
2018-02-21T23:30:07.207Z,20.88
2018-02-21T23:32:35.567Z,20.55
2018-02-21T23:35:03.936Z,20.55
2018-02-21T23:37:31.614Z,21.35
2018-02-21T23:39:59.189Z,20.80
2018-02-21T23:42:27.557Z,20.17
2018-02-21T23:44:55.909Z,20.58
2018-02-21T23:47:23.502Z,20.73
2018-02-21T23:49:51.857Z,20.88
2018-02-21T23:52:19.452Z,21.00
2018-02-21T23:54:47.790Z,20.50
2018-02-21T23:57:15.389Z,21.87
2018-02-21T23:59:43.737Z,21.20
